sensor_id;sensor_type;location;lat;lon;timestamp;temperature;humidity
61386;DHT22;47256;18.904;-99.054;2023-01-29T00:01:07;25.10;59.00
61386;DHT22;47256;18.904;-99.054;2023-01-29T00:03:55;25.10;59.00
61386;DHT22;47256;18.904;-99.054;2023-01-29T00:06:41;25.00;59.30
61386;DHT22;47256;18.904;-99.054;2023-01-29T00:09:27;24.90;59.20
61386;DHT22;47256;18.904;-99.054;2023-01-29T00:12:13;24.90;59.90
61386;DHT22;47256;18.904;-99.054;2023-01-29T00:15:00;24.80;60.10
61386;DHT22;47256;18.904;-99.054;2023-01-29T00:17:46;24.70;59.60
61386;DHT22;47256;18.904;-99.054;2023-01-29T00:20:31;24.70;60.10
61386;DHT22;47256;18.904;-99.054;2023-01-29T00:23:18;24.60;60.10
61386;DHT22;47256;18.904;-99.054;2023-01-29T00:26:06;24.60;62.20
61386;DHT22;47256;18.904;-99.054;2023-01-29T00:28:52;24.50;61.80
61386;DHT22;47256;18.904;-99.054;2023-01-29T00:31:38;24.40;61.90
61386;DHT22;47256;18.904;-99.054;2023-01-29T00:34:25;24.40;62.70
61386;DHT22;47256;18.904;-99.054;2023-01-29T00:37:12;24.30;63.40
61386;DHT22;47256;18.904;-99.054;2023-01-29T00:39:57;24.30;64.50
61386;DHT22;47256;18.904;-99.054;2023-01-29T00:42:44;24.20;65.10
61386;DHT22;47256;18.904;-99.054;2023-01-29T00:45:50;24.10;65.20
61386;DHT22;47256;18.904;-99.054;2023-01-29T00:48:37;24.00;65.40
61386;DHT22;47256;18.904;-99.054;2023-01-29T00:51:24;24.00;66.00
61386;DHT22;47256;18.904;-99.054;2023-01-29T00:54:10;23.90;67.20
61386;DHT22;47256;18.904;-99.054;2023-01-29T00:56:56;23.80;67.40
61386;DHT22;47256;18.904;-99.054;2023-01-29T00:59:42;23.70;67.40
61386;DHT22;47256;18.904;-99.054;2023-01-29T01:02:28;23.70;68.20
61386;DHT22;47256;18.904;-99.054;2023-01-29T01:05:35;23.60;68.50
61386;DHT22;47256;18.904;-99.054;2023-01-29T01:08:23;23.50;67.60
61386;DHT22;47256;18.904;-99.054;2023-01-29T01:11:26;23.50;67.60
61386;DHT22;47256;18.904;-99.054;2023-01-29T01:14:13;23.40;67.50
61386;DHT22;47256;18.904;-99.054;2023-01-29T01:17:01;23.40;66.60
61386;DHT22;47256;18.904;-99.054;2023-01-29T01:19:47;23.30;67.40
61386;DHT22;47256;18.904;-99.054;2023-01-29T01:22:33;23.20;68.20
61386;DHT22;47256;18.904;-99.054;2023-01-29T01:25:21;23.20;67.80
61386;DHT22;47256;18.904;-99.054;2023-01-29T01:28:09;23.10;67.30
61386;DHT22;47256;18.904;-99.054;2023-01-29T01:30:55;23.10;67.30
61386;DHT22;47256;18.904;-99.054;2023-01-29T01:33:42;23.00;67.70
61386;DHT22;47256;18.904;-99.054;2023-01-29T01:36:27;23.00;67.70
61386;DHT22;47256;18.904;-99.054;2023-01-29T01:39:14;23.00;67.50
61386;DHT22;47256;18.904;-99.054;2023-01-29T01:42:00;22.90;68.40
61386;DHT22;47256;18.904;-99.054;2023-01-29T01:45:01;22.90;67.90
61386;DHT22;47256;18.904;-99.054;2023-01-29T01:51:08;22.80;68.10
61386;DHT22;47256;18.904;-99.054;2023-01-29T01:54:02;22.80;70.40
61386;DHT22;47256;18.904;-99.054;2023-01-29T01:56:59;22.60;72.10
61386;DHT22;47256;18.904;-99.054;2023-01-29T01:59:58;22.50;72.60
61386;DHT22;47256;18.904;-99.054;2023-01-29T02:02:59;22.40;71.30
61386;DHT22;47256;18.904;-99.054;2023-01-29T02:06:08;22.30;71.90
61386;DHT22;47256;18.904;-99.054;2023-01-29T02:09:18;22.30;71.60
61386;DHT22;47256;18.904;-99.054;2023-01-29T02:12:22;22.30;72.10
61386;DHT22;47256;18.904;-99.054;2023-01-29T02:15:08;22.30;71.10
61386;DHT22;47256;18.904;-99.054;2023-01-29T02:17:54;22.30;71.50
61386;DHT22;47256;18.904;-99.054;2023-01-29T02:20:47;22.30;72.00
61386;DHT22;47256;18.904;-99.054;2023-01-29T02:23:47;22.20;71.80
61386;DHT22;47256;18.904;-99.054;2023-01-29T02:33:01;22.00;74.10
61386;DHT22;47256;18.904;-99.054;2023-01-29T02:42:34;21.90;74.40
61386;DHT22;47256;18.904;-99.054;2023-01-29T02:45:36;21.90;74.80
61386;DHT22;47256;18.904;-99.054;2023-01-29T02:48:33;21.90;75.00
61386;DHT22;47256;18.904;-99.054;2023-01-29T02:51:49;21.80;76.00
61386;DHT22;47256;18.904;-99.054;2023-01-29T02:54:44;21.80;76.20
61386;DHT22;47256;18.904;-99.054;2023-01-29T02:57:36;21.70;75.30
61386;DHT22;47256;18.904;-99.054;2023-01-29T03:00:29;21.70;75.30
61386;DHT22;47256;18.904;-99.054;2023-01-29T03:03:47;21.70;75.10
61386;DHT22;47256;18.904;-99.054;2023-01-29T03:07:05;21.60;74.70
61386;DHT22;47256;18.904;-99.054;2023-01-29T03:09:54;21.60;74.00
61386;DHT22;47256;18.904;-99.054;2023-01-29T03:12:43;21.60;74.00
61386;DHT22;47256;18.904;-99.054;2023-01-29T03:15:42;21.60;74.50
61386;DHT22;47256;18.904;-99.054;2023-01-29T03:18:53;21.50;75.10
61386;DHT22;47256;18.904;-99.054;2023-01-29T03:21:43;21.40;74.60
61386;DHT22;47256;18.904;-99.054;2023-01-29T03:24:57;21.30;75.90
61386;DHT22;47256;18.904;-99.054;2023-01-29T03:28:08;21.30;75.90
61386;DHT22;47256;18.904;-99.054;2023-01-29T03:31:17;21.20;76.70
61386;DHT22;47256;18.904;-99.054;2023-01-29T03:34:23;21.20;76.10
61386;DHT22;47256;18.904;-99.054;2023-01-29T03:37:32;21.20;76.90
61386;DHT22;47256;18.904;-99.054;2023-01-29T03:40:23;21.20;76.50
61386;DHT22;47256;18.904;-99.054;2023-01-29T03:46:07;21.10;77.20
61386;DHT22;47256;18.904;-99.054;2023-01-29T03:52:14;21.10;77.60
61386;DHT22;47256;18.904;-99.054;2023-01-29T03:55:14;21.00;78.70
61386;DHT22;47256;18.904;-99.054;2023-01-29T04:04:37;20.60;77.20
61386;DHT22;47256;18.904;-99.054;2023-01-29T04:07:25;20.50;77.50
61386;DHT22;47256;18.904;-99.054;2023-01-29T04:10:24;20.50;78.00
61386;DHT22;47256;18.904;-99.054;2023-01-29T04:13:13;20.60;78.00
61386;DHT22;47256;18.904;-99.054;2023-01-29T04:16:05;20.60;77.70
61386;DHT22;47256;18.904;-99.054;2023-01-29T04:19:09;20.50;78.20
61386;DHT22;47256;18.904;-99.054;2023-01-29T04:22:06;20.50;79.40
61386;DHT22;47256;18.904;-99.054;2023-01-29T04:24:52;20.50;79.50
61386;DHT22;47256;18.904;-99.054;2023-01-29T04:28:04;20.40;79.50
61386;DHT22;47256;18.904;-99.054;2023-01-29T04:31:03;20.40;79.20
61386;DHT22;47256;18.904;-99.054;2023-01-29T04:37:22;20.40;79.40
61386;DHT22;47256;18.904;-99.054;2023-01-29T04:47:17;20.20;80.70
61386;DHT22;47256;18.904;-99.054;2023-01-29T04:53:03;20.20;79.10
61386;DHT22;47256;18.904;-99.054;2023-01-29T04:59:21;20.00;80.10
61386;DHT22;47256;18.904;-99.054;2023-01-29T05:02:10;20.00;80.70
61386;DHT22;47256;18.904;-99.054;2023-01-29T05:04:57;20.00;79.80
61386;DHT22;47256;18.904;-99.054;2023-01-29T05:07:46;19.90;80.20
61386;DHT22;47256;18.904;-99.054;2023-01-29T05:10:33;19.80;80.80
61386;DHT22;47256;18.904;-99.054;2023-01-29T05:13:21;19.70;81.30
61386;DHT22;47256;18.904;-99.054;2023-01-29T05:16:08;19.70;80.80
61386;DHT22;47256;18.904;-99.054;2023-01-29T05:18:55;19.70;81.70
61386;DHT22;47256;18.904;-99.054;2023-01-29T05:21:43;19.60;81.30
61386;DHT22;47256;18.904;-99.054;2023-01-29T05:24:30;19.60;80.90
61386;DHT22;47256;18.904;-99.054;2023-01-29T05:27:20;19.50;81.70
61386;DHT22;47256;18.904;-99.054;2023-01-29T05:30:25;19.50;81.50
61386;DHT22;47256;18.904;-99.054;2023-01-29T05:33:27;19.40;81.20
61386;DHT22;47256;18.904;-99.054;2023-01-29T05:36:14;19.30;81.90
61386;DHT22;47256;18.904;-99.054;2023-01-29T05:39:01;19.40;82.10
61386;DHT22;47256;18.904;-99.054;2023-01-29T05:41:47;19.40;81.80
61386;DHT22;47256;18.904;-99.054;2023-01-29T05:44:33;19.40;81.70
61386;DHT22;47256;18.904;-99.054;2023-01-29T05:47:20;19.40;81.60
61386;DHT22;47256;18.904;-99.054;2023-01-29T05:50:07;19.30;80.90
61386;DHT22;47256;18.904;-99.054;2023-01-29T05:52:57;19.30;80.50
61386;DHT22;47256;18.904;-99.054;2023-01-29T05:55:45;19.20;80.90
61386;DHT22;47256;18.904;-99.054;2023-01-29T05:58:33;19.30;80.50
61386;DHT22;47256;18.904;-99.054;2023-01-29T06:01:22;19.30;80.50
61386;DHT22;47256;18.904;-99.054;2023-01-29T06:04:09;19.30;80.30
61386;DHT22;47256;18.904;-99.054;2023-01-29T06:06:55;19.30;80.50
61386;DHT22;47256;18.904;-99.054;2023-01-29T06:09:41;19.30;80.80
61386;DHT22;47256;18.904;-99.054;2023-01-29T06:12:27;19.20;81.40
61386;DHT22;47256;18.904;-99.054;2023-01-29T06:15:14;19.10;81.50
61386;DHT22;47256;18.904;-99.054;2023-01-29T06:18:00;19.00;82.80
61386;DHT22;47256;18.904;-99.054;2023-01-29T06:20:46;18.90;83.20
61386;DHT22;47256;18.904;-99.054;2023-01-29T06:23:32;18.80;83.30
61386;DHT22;47256;18.904;-99.054;2023-01-29T06:26:18;18.70;83.90
61386;DHT22;47256;18.904;-99.054;2023-01-29T06:29:04;18.70;83.60
61386;DHT22;47256;18.904;-99.054;2023-01-29T06:31:50;18.70;82.70
61386;DHT22;47256;18.904;-99.054;2023-01-29T06:34:36;18.70;83.00
61386;DHT22;47256;18.904;-99.054;2023-01-29T06:37:22;18.70;83.20
61386;DHT22;47256;18.904;-99.054;2023-01-29T06:40:09;18.60;82.30
61386;DHT22;47256;18.904;-99.054;2023-01-29T06:42:55;18.50;82.70
61386;DHT22;47256;18.904;-99.054;2023-01-29T06:48:34;18.30;83.40
61386;DHT22;47256;18.904;-99.054;2023-01-29T06:51:20;18.30;82.00
61386;DHT22;47256;18.904;-99.054;2023-01-29T06:54:08;18.20;81.50
61386;DHT22;47256;18.904;-99.054;2023-01-29T06:56:54;18.30;82.80
61386;DHT22;47256;18.904;-99.054;2023-01-29T06:59:41;18.40;82.40
61386;DHT22;47256;18.904;-99.054;2023-01-29T07:02:27;18.50;81.40
61386;DHT22;47256;18.904;-99.054;2023-01-29T07:05:14;18.30;81.10
61386;DHT22;47256;18.904;-99.054;2023-01-29T07:08:00;18.30;80.30
61386;DHT22;47256;18.904;-99.054;2023-01-29T07:10:46;18.30;81.80
61386;DHT22;47256;18.904;-99.054;2023-01-29T07:13:32;18.30;81.20
61386;DHT22;47256;18.904;-99.054;2023-01-29T07:16:19;18.40;81.10
61386;DHT22;47256;18.904;-99.054;2023-01-29T07:19:04;18.30;80.50
61386;DHT22;47256;18.904;-99.054;2023-01-29T07:21:51;18.10;80.20
61386;DHT22;47256;18.904;-99.054;2023-01-29T07:24:37;17.90;81.60
61386;DHT22;47256;18.904;-99.054;2023-01-29T07:27:23;17.90;81.20
61386;DHT22;47256;18.904;-99.054;2023-01-29T07:30:09;18.00;81.30
61386;DHT22;47256;18.904;-99.054;2023-01-29T07:33:07;18.00;81.30
61386;DHT22;47256;18.904;-99.054;2023-01-29T07:35:53;18.10;81.10
61386;DHT22;47256;18.904;-99.054;2023-01-29T07:38:40;18.00;81.60
61386;DHT22;47256;18.904;-99.054;2023-01-29T07:41:26;17.90;83.40
61386;DHT22;47256;18.904;-99.054;2023-01-29T07:44:13;17.80;83.00
61386;DHT22;47256;18.904;-99.054;2023-01-29T07:46:59;17.90;83.40
61386;DHT22;47256;18.904;-99.054;2023-01-29T07:49:46;17.60;84.40
61386;DHT22;47256;18.904;-99.054;2023-01-29T07:52:33;17.60;83.50
61386;DHT22;47256;18.904;-99.054;2023-01-29T07:55:19;17.70;83.00
61386;DHT22;47256;18.904;-99.054;2023-01-29T07:58:04;17.80;82.80
61386;DHT22;47256;18.904;-99.054;2023-01-29T08:00:51;17.70;83.00
61386;DHT22;47256;18.904;-99.054;2023-01-29T08:03:37;17.80;83.10
61386;DHT22;47256;18.904;-99.054;2023-01-29T08:06:24;17.90;83.30
61386;DHT22;47256;18.904;-99.054;2023-01-29T08:09:11;18.00;82.90
61386;DHT22;47256;18.904;-99.054;2023-01-29T08:11:57;17.90;82.90
61386;DHT22;47256;18.904;-99.054;2023-01-29T08:14:44;17.90;83.80
61386;DHT22;47256;18.904;-99.054;2023-01-29T08:17:30;17.90;83.20
61386;DHT22;47256;18.904;-99.054;2023-01-29T08:20:16;17.80;83.10
61386;DHT22;47256;18.904;-99.054;2023-01-29T08:23:04;17.70;82.10
61386;DHT22;47256;18.904;-99.054;2023-01-29T08:25:51;17.70;82.10
61386;DHT22;47256;18.904;-99.054;2023-01-29T08:28:37;17.80;82.70
61386;DHT22;47256;18.904;-99.054;2023-01-29T08:31:23;17.80;81.80
61386;DHT22;47256;18.904;-99.054;2023-01-29T08:34:09;17.80;82.60
61386;DHT22;47256;18.904;-99.054;2023-01-29T08:36:55;17.60;78.80
61386;DHT22;47256;18.904;-99.054;2023-01-29T08:39:42;17.60;79.00
61386;DHT22;47256;18.904;-99.054;2023-01-29T08:42:28;17.50;79.60
61386;DHT22;47256;18.904;-99.054;2023-01-29T08:45:14;17.60;80.90
61386;DHT22;47256;18.904;-99.054;2023-01-29T08:48:00;17.60;80.50
61386;DHT22;47256;18.904;-99.054;2023-01-29T08:50:47;17.60;81.30
61386;DHT22;47256;18.904;-99.054;2023-01-29T08:53:33;17.50;81.90
61386;DHT22;47256;18.904;-99.054;2023-01-29T08:56:20;17.30;82.00
61386;DHT22;47256;18.904;-99.054;2023-01-29T08:59:06;17.30;81.90
61386;DHT22;47256;18.904;-99.054;2023-01-29T09:01:53;17.20;81.70
61386;DHT22;47256;18.904;-99.054;2023-01-29T09:04:40;17.10;82.60
61386;DHT22;47256;18.904;-99.054;2023-01-29T09:07:27;17.20;83.40
61386;DHT22;47256;18.904;-99.054;2023-01-29T09:10:13;17.10;83.60
61386;DHT22;47256;18.904;-99.054;2023-01-29T09:13:00;17.10;83.70
61386;DHT22;47256;18.904;-99.054;2023-01-29T09:15:46;17.00;84.80
61386;DHT22;47256;18.904;-99.054;2023-01-29T09:18:32;16.90;83.80
61386;DHT22;47256;18.904;-99.054;2023-01-29T09:21:18;16.90;83.90
61386;DHT22;47256;18.904;-99.054;2023-01-29T09:24:04;17.00;83.80
61386;DHT22;47256;18.904;-99.054;2023-01-29T09:26:51;16.90;84.10
61386;DHT22;47256;18.904;-99.054;2023-01-29T09:29:37;16.90;84.70
61386;DHT22;47256;18.904;-99.054;2023-01-29T09:32:23;17.00;83.60
61386;DHT22;47256;18.904;-99.054;2023-01-29T09:35:09;17.00;83.70
61386;DHT22;47256;18.904;-99.054;2023-01-29T09:37:55;17.10;83.60
61386;DHT22;47256;18.904;-99.054;2023-01-29T09:43:54;17.00;82.50
61386;DHT22;47256;18.904;-99.054;2023-01-29T09:46:45;16.90;82.00
61386;DHT22;47256;18.904;-99.054;2023-01-29T09:49:35;16.90;82.10
61386;DHT22;47256;18.904;-99.054;2023-01-29T09:52:35;16.80;82.80
61386;DHT22;47256;18.904;-99.054;2023-01-29T09:58:34;16.70;84.40
61386;DHT22;47256;18.904;-99.054;2023-01-29T10:04:51;16.80;84.30
61386;DHT22;47256;18.904;-99.054;2023-01-29T10:25:49;16.50;87.10
61386;DHT22;47256;18.904;-99.054;2023-01-29T10:28:41;16.50;86.90
61386;DHT22;47256;18.904;-99.054;2023-01-29T10:31:32;16.50;86.90
61386;DHT22;47256;18.904;-99.054;2023-01-29T10:34:34;16.50;86.90
61386;DHT22;47256;18.904;-99.054;2023-01-29T10:37:29;16.60;87.10
61386;DHT22;47256;18.904;-99.054;2023-01-29T10:40:23;16.60;87.10
61386;DHT22;47256;18.904;-99.054;2023-01-29T10:43:44;16.60;87.10
61386;DHT22;47256;18.904;-99.054;2023-01-29T10:49:54;16.50;87.70
61386;DHT22;47256;18.904;-99.054;2023-01-29T10:56:16;16.20;86.60
61386;DHT22;47256;18.904;-99.054;2023-01-29T10:59:32;16.30;87.30
61386;DHT22;47256;18.904;-99.054;2023-01-29T11:02:21;16.30;87.60
61386;DHT22;47256;18.904;-99.054;2023-01-29T11:05:36;16.30;87.80
61386;DHT22;47256;18.904;-99.054;2023-01-29T11:08:33;16.20;87.10
61386;DHT22;47256;18.904;-99.054;2023-01-29T11:11:43;16.10;88.10
61386;DHT22;47256;18.904;-99.054;2023-01-29T11:17:36;16.10;88.80
61386;DHT22;47256;18.904;-99.054;2023-01-29T11:20:26;16.20;88.30
61386;DHT22;47256;18.904;-99.054;2023-01-29T11:23:32;16.30;88.00
61386;DHT22;47256;18.904;-99.054;2023-01-29T11:26:20;16.30;88.20
61386;DHT22;47256;18.904;-99.054;2023-01-29T11:32:33;16.20;87.80
61386;DHT22;47256;18.904;-99.054;2023-01-29T11:35:21;16.10;88.00
61386;DHT22;47256;18.904;-99.054;2023-01-29T11:41:16;16.10;88.30
61386;DHT22;47256;18.904;-99.054;2023-01-29T11:45:02;16.00;89.40
61386;DHT22;47256;18.904;-99.054;2023-01-29T11:47:30;15.80;89.60
61386;DHT22;47256;18.904;-99.054;2023-01-29T11:50:23;15.60;90.20
61386;DHT22;47256;18.904;-99.054;2023-01-29T11:53:41;15.50;89.40
61386;DHT22;47256;18.904;-99.054;2023-01-29T11:56:28;15.50;89.70
61386;DHT22;47256;18.904;-99.054;2023-01-29T11:59:45;15.40;90.00
61386;DHT22;47256;18.904;-99.054;2023-01-29T12:05:23;15.50;89.90
61386;DHT22;47256;18.904;-99.054;2023-01-29T12:08:19;15.60;89.40
61386;DHT22;47256;18.904;-99.054;2023-01-29T12:11:26;15.70;89.00
61386;DHT22;47256;18.904;-99.054;2023-01-29T12:14:29;15.60;86.90
61386;DHT22;47256;18.904;-99.054;2023-01-29T12:17:24;15.50;86.60
61386;DHT22;47256;18.904;-99.054;2023-01-29T12:20:20;15.50;88.00
61386;DHT22;47256;18.904;-99.054;2023-01-29T12:26:49;15.60;89.10
61386;DHT22;47256;18.904;-99.054;2023-01-29T12:32:58;15.50;89.30
61386;DHT22;47256;18.904;-99.054;2023-01-29T12:35:49;15.50;89.50
61386;DHT22;47256;18.904;-99.054;2023-01-29T12:38:38;15.60;89.10
61386;DHT22;47256;18.904;-99.054;2023-01-29T12:41:47;15.60;89.30
61386;DHT22;47256;18.904;-99.054;2023-01-29T12:44:39;15.40;89.90
61386;DHT22;47256;18.904;-99.054;2023-01-29T12:50:35;15.40;90.20
61386;DHT22;47256;18.904;-99.054;2023-01-29T12:53:27;15.40;90.30
61386;DHT22;47256;18.904;-99.054;2023-01-29T12:56:37;15.40;90.00
61386;DHT22;47256;18.904;-99.054;2023-01-29T13:05:25;15.40;90.50
61386;DHT22;47256;18.904;-99.054;2023-01-29T13:08:29;15.50;90.60
61386;DHT22;47256;18.904;-99.054;2023-01-29T13:11:41;15.50;90.20
61386;DHT22;47256;18.904;-99.054;2023-01-29T13:14:56;15.40;90.50
61386;DHT22;47256;18.904;-99.054;2023-01-29T13:17:52;15.40;90.80
61386;DHT22;47256;18.904;-99.054;2023-01-29T13:20:40;15.40;90.80
61386;DHT22;47256;18.904;-99.054;2023-01-29T13:23:35;15.40;90.80
61386;DHT22;47256;18.904;-99.054;2023-01-29T13:26:22;15.40;91.20
61386;DHT22;47256;18.904;-99.054;2023-01-29T13:32:07;15.30;90.10
61386;DHT22;47256;18.904;-99.054;2023-01-29T13:35:20;15.20;88.70
61386;DHT22;47256;18.904;-99.054;2023-01-29T13:38:14;15.10;88.80
61386;DHT22;47256;18.904;-99.054;2023-01-29T13:41:06;15.10;88.10
61386;DHT22;47256;18.904;-99.054;2023-01-29T13:43:55;15.20;89.10
61386;DHT22;47256;18.904;-99.054;2023-01-29T13:46:41;15.10;87.40
61386;DHT22;47256;18.904;-99.054;2023-01-29T13:49:44;15.20;89.40
61386;DHT22;47256;18.904;-99.054;2023-01-29T13:52:44;15.30;88.30
61386;DHT22;47256;18.904;-99.054;2023-01-29T13:55:48;15.40;90.10
61386;DHT22;47256;18.904;-99.054;2023-01-29T14:04:35;15.60;90.80
61386;DHT22;47256;18.904;-99.054;2023-01-29T14:07:48;15.70;91.30
61386;DHT22;47256;18.904;-99.054;2023-01-29T14:10:36;15.80;91.20
61386;DHT22;47256;18.904;-99.054;2023-01-29T14:13:25;16.00;92.00
61386;DHT22;47256;18.904;-99.054;2023-01-29T14:19:03;16.20;88.00
61386;DHT22;47256;18.904;-99.054;2023-01-29T14:21:51;16.30;87.60
61386;DHT22;47256;18.904;-99.054;2023-01-29T14:24:41;16.50;86.60
61386;DHT22;47256;18.904;-99.054;2023-01-29T14:27:28;16.80;90.60
61386;DHT22;47256;18.904;-99.054;2023-01-29T14:30:18;17.00;90.90
61386;DHT22;47256;18.904;-99.054;2023-01-29T14:33:05;17.10;90.60
61386;DHT22;47256;18.904;-99.054;2023-01-29T14:36:13;17.20;91.80
61386;DHT22;47256;18.904;-99.054;2023-01-29T14:39:00;17.40;91.10
61386;DHT22;47256;18.904;-99.054;2023-01-29T14:41:46;17.50;91.20
61386;DHT22;47256;18.904;-99.054;2023-01-29T14:56:17;18.20;91.30
61386;DHT22;47256;18.904;-99.054;2023-01-29T14:59:16;18.40;90.40
61386;DHT22;47256;18.904;-99.054;2023-01-29T15:02:46;18.60;91.00
61386;DHT22;47256;18.904;-99.054;2023-01-29T15:05:34;18.80;89.60
61386;DHT22;47256;18.904;-99.054;2023-01-29T15:11:22;19.30;87.80
61386;DHT22;47256;18.904;-99.054;2023-01-29T15:14:31;19.50;83.10
61386;DHT22;47256;18.904;-99.054;2023-01-29T15:17:32;19.70;80.70
61386;DHT22;47256;18.904;-99.054;2023-01-29T15:20:36;19.90;85.30
61386;DHT22;47256;18.904;-99.054;2023-01-29T15:23:32;20.10;87.30
61386;DHT22;47256;18.904;-99.054;2023-01-29T15:26:22;20.30;83.70
61386;DHT22;47256;18.904;-99.054;2023-01-29T15:29:23;20.50;83.90
61386;DHT22;47256;18.904;-99.054;2023-01-29T15:32:35;20.70;84.40
61386;DHT22;47256;18.904;-99.054;2023-01-29T15:35:36;21.00;81.30
61386;DHT22;47256;18.904;-99.054;2023-01-29T15:38:24;21.20;80.20
61386;DHT22;47256;18.904;-99.054;2023-01-29T15:41:17;21.40;79.30
61386;DHT22;47256;18.904;-99.054;2023-01-29T15:44:13;21.70;79.10
61386;DHT22;47256;18.904;-99.054;2023-01-29T15:47:01;21.90;79.40
61386;DHT22;47256;18.904;-99.054;2023-01-29T15:49:47;22.10;77.70
61386;DHT22;47256;18.904;-99.054;2023-01-29T15:52:33;22.30;77.00
61386;DHT22;47256;18.904;-99.054;2023-01-29T15:55:22;22.40;73.30
61386;DHT22;47256;18.904;-99.054;2023-01-29T15:58:15;22.60;76.30
61386;DHT22;47256;18.904;-99.054;2023-01-29T16:01:03;22.70;74.00
61386;DHT22;47256;18.904;-99.054;2023-01-29T16:03:50;22.90;72.10
61386;DHT22;47256;18.904;-99.054;2023-01-29T16:06:38;23.00;73.60
61386;DHT22;47256;18.904;-99.054;2023-01-29T16:09:25;23.30;75.70
61386;DHT22;47256;18.904;-99.054;2023-01-29T16:12:12;23.50;75.60
61386;DHT22;47256;18.904;-99.054;2023-01-29T16:15:00;23.60;77.00
61386;DHT22;47256;18.904;-99.054;2023-01-29T16:17:48;23.80;74.80
61386;DHT22;47256;18.904;-99.054;2023-01-29T16:20:39;23.90;73.90
61386;DHT22;47256;18.904;-99.054;2023-01-29T16:23:20;24.00;72.80
61386;DHT22;47256;18.904;-99.054;2023-01-29T16:25:49;24.10;72.20
61386;DHT22;47256;18.904;-99.054;2023-01-29T16:28:17;24.30;71.10
61386;DHT22;47256;18.904;-99.054;2023-01-29T16:30:45;24.40;69.20
61386;DHT22;47256;18.904;-99.054;2023-01-29T16:33:15;24.50;72.60
61386;DHT22;47256;18.904;-99.054;2023-01-29T16:35:50;24.60;71.70
61386;DHT22;47256;18.904;-99.054;2023-01-29T16:38:32;24.70;69.90
61386;DHT22;47256;18.904;-99.054;2023-01-29T16:46:23;25.30;68.60
61386;DHT22;47256;18.904;-99.054;2023-01-29T16:48:52;25.40;69.60
61386;DHT22;47256;18.904;-99.054;2023-01-29T16:51:23;25.50;69.40
61386;DHT22;47256;18.904;-99.054;2023-01-29T16:53:58;25.70;67.80
61386;DHT22;47256;18.904;-99.054;2023-01-29T16:56:29;25.70;65.10
61386;DHT22;47256;18.904;-99.054;2023-01-29T16:58:57;25.90;69.00
61386;DHT22;47256;18.904;-99.054;2023-01-29T17:01:28;26.00;67.50
61386;DHT22;47256;18.904;-99.054;2023-01-29T17:04:10;26.10;67.70
61386;DHT22;47256;18.904;-99.054;2023-01-29T17:06:44;26.40;67.90
61386;DHT22;47256;18.904;-99.054;2023-01-29T17:09:32;26.50;65.60
61386;DHT22;47256;18.904;-99.054;2023-01-29T17:12:05;26.60;63.60
61386;DHT22;47256;18.904;-99.054;2023-01-29T17:14:35;26.60;63.80
61386;DHT22;47256;18.904;-99.054;2023-01-29T17:17:15;26.70;63.80
61386;DHT22;47256;18.904;-99.054;2023-01-29T17:19:43;26.60;65.40
61386;DHT22;47256;18.904;-99.054;2023-01-29T17:22:10;26.70;62.20
61386;DHT22;47256;18.904;-99.054;2023-01-29T17:24:41;26.80;63.80
61386;DHT22;47256;18.904;-99.054;2023-01-29T17:27:20;26.90;64.20
61386;DHT22;47256;18.904;-99.054;2023-01-29T17:29:48;27.10;64.90
61386;DHT22;47256;18.904;-99.054;2023-01-29T17:32:16;27.20;64.30
61386;DHT22;47256;18.904;-99.054;2023-01-29T17:34:44;27.30;64.10
61386;DHT22;47256;18.904;-99.054;2023-01-29T17:37:14;27.40;61.70
61386;DHT22;47256;18.904;-99.054;2023-01-29T17:39:42;27.40;63.00
61386;DHT22;47256;18.904;-99.054;2023-01-29T17:42:13;27.40;62.00
61386;DHT22;47256;18.904;-99.054;2023-01-29T17:44:41;27.40;61.90
61386;DHT22;47256;18.904;-99.054;2023-01-29T17:47:13;27.50;62.70
61386;DHT22;47256;18.904;-99.054;2023-01-29T17:49:41;27.60;63.20
61386;DHT22;47256;18.904;-99.054;2023-01-29T17:52:09;27.70;62.10
61386;DHT22;47256;18.904;-99.054;2023-01-29T17:54:36;27.90;60.40
61386;DHT22;47256;18.904;-99.054;2023-01-29T17:57:03;27.90;62.00
61386;DHT22;47256;18.904;-99.054;2023-01-29T17:59:32;28.10;62.00
61386;DHT22;47256;18.904;-99.054;2023-01-29T18:02:00;28.20;59.90
61386;DHT22;47256;18.904;-99.054;2023-01-29T18:04:28;28.20;62.10
61386;DHT22;47256;18.904;-99.054;2023-01-29T18:06:56;28.20;61.80
61386;DHT22;47256;18.904;-99.054;2023-01-29T18:09:24;28.30;59.60
61386;DHT22;47256;18.904;-99.054;2023-01-29T18:11:51;28.30;58.90
61386;DHT22;47256;18.904;-99.054;2023-01-29T18:14:19;28.40;60.70
61386;DHT22;47256;18.904;-99.054;2023-01-29T18:16:47;28.40;61.10
61386;DHT22;47256;18.904;-99.054;2023-01-29T18:19:21;28.40;59.90
61386;DHT22;47256;18.904;-99.054;2023-01-29T18:21:50;28.50;60.50
61386;DHT22;47256;18.904;-99.054;2023-01-29T18:24:18;28.50;64.10
61386;DHT22;47256;18.904;-99.054;2023-01-29T18:26:47;28.40;59.50
61386;DHT22;47256;18.904;-99.054;2023-01-29T18:29:15;28.40;59.60
61386;DHT22;47256;18.904;-99.054;2023-01-29T18:32:07;28.50;58.50
61386;DHT22;47256;18.904;-99.054;2023-01-29T18:34:36;28.70;60.80
61386;DHT22;47256;18.904;-99.054;2023-01-29T18:37:03;28.70;58.80
61386;DHT22;47256;18.904;-99.054;2023-01-29T18:39:31;28.70;57.60
61386;DHT22;47256;18.904;-99.054;2023-01-29T18:41:58;28.60;56.90
61386;DHT22;47256;18.904;-99.054;2023-01-29T18:44:26;28.70;60.20
61386;DHT22;47256;18.904;-99.054;2023-01-29T18:46:55;28.90;57.60
61386;DHT22;47256;18.904;-99.054;2023-01-29T18:49:22;28.80;56.90
61386;DHT22;47256;18.904;-99.054;2023-01-29T18:51:50;28.90;56.40
61386;DHT22;47256;18.904;-99.054;2023-01-29T18:54:17;28.90;59.00
61386;DHT22;47256;18.904;-99.054;2023-01-29T18:56:46;28.90;56.80
61386;DHT22;47256;18.904;-99.054;2023-01-29T18:59:13;28.80;57.40
61386;DHT22;47256;18.904;-99.054;2023-01-29T19:01:40;28.90;57.20
61386;DHT22;47256;18.904;-99.054;2023-01-29T19:04:08;29.00;58.20
61386;DHT22;47256;18.904;-99.054;2023-01-29T19:06:37;28.90;55.60
61386;DHT22;47256;18.904;-99.054;2023-01-29T19:09:04;28.90;55.70
61386;DHT22;47256;18.904;-99.054;2023-01-29T19:11:32;28.90;56.30
61386;DHT22;47256;18.904;-99.054;2023-01-29T19:14:00;28.90;54.70
61386;DHT22;47256;18.904;-99.054;2023-01-29T19:16:27;28.90;56.20
61386;DHT22;47256;18.904;-99.054;2023-01-29T19:18:54;29.00;55.20
61386;DHT22;47256;18.904;-99.054;2023-01-29T19:21:22;29.00;55.60
61386;DHT22;47256;18.904;-99.054;2023-01-29T19:23:50;29.00;54.80
61386;DHT22;47256;18.904;-99.054;2023-01-29T19:26:17;29.00;54.60
61386;DHT22;47256;18.904;-99.054;2023-01-29T19:28:44;29.00;53.40
61386;DHT22;47256;18.904;-99.054;2023-01-29T19:31:12;28.90;53.70